Time;durP1;ratioP1;P1;durP2;ratioP2;P2;SDS_P1;SDS_P2;PMS_P1;PMS_P2;Temp;Humidity;BMP_temperature;BMP_pressure;BME280_temperature;BME280_humidity;BME280_pressure;Samples;Min_cycle;Max_cycle;Signal;HPM_P1;HPM_P2
2022/06/29 00:00:18;;;;;;;3.40;2.63;;;;;;;-148.88;75.44;75433.97;4977301;28;20019;-75
2022/06/29 00:02:44;;;;;;;4.97;2.85;;;;;;;-148.88;75.89;75440.06;4977589;28;20031;-75
2022/06/29 00:05:12;;;;;;;4.20;2.45;;;;;;;-148.88;76.27;75440.06;5016791;23;20030;-87
2022/06/29 00:07:38;;;;;;;3.67;2.83;;;;;;;-148.88;75.31;75446.16;4979803;28;20457;-84
2022/06/29 00:10:04;;;;;;;3.15;2.42;;;;;;;-148.88;75.55;75446.16;4979848;28;20053;-86
2022/06/29 00:12:30;;;;;;;3.88;2.50;;;;;;;-148.88;75.16;75456.31;4980758;28;20080;-87
2022/06/29 00:14:56;;;;;;;4.00;2.80;;;;;;;-148.88;75.43;75452.25;4981273;28;20026;-86
2022/06/29 00:17:22;;;;;;;3.50;2.20;;;;;;;-148.88;75.36;75456.31;5015346;28;20025;-86
2022/06/29 00:19:48;;;;;;;3.85;2.50;;;;;;;-148.88;75.56;75456.31;5015584;28;20018;-86
2022/06/29 00:22:15;;;;;;;4.85;2.80;;;;;;;-148.88;75.74;75460.38;5015287;28;20472;-87
2022/06/29 00:24:40;;;;;;;3.30;2.58;;;;;;;-148.88;76.07;75464.44;5016111;28;20029;-86
2022/06/29 00:27:05;;;;;;;3.75;2.47;;;;;;;-148.88;75.99;75466.47;5015159;28;20400;-86
2022/06/29 00:29:31;;;;;;;5.43;2.72;;;;;;;-148.88;76.14;75468.50;4997533;28;20075;-87
2022/06/29 00:31:56;;;;;;;3.22;2.63;;;;;;;-148.88;76.17;75472.56;5015366;28;20029;-86
2022/06/29 00:34:22;;;;;;;4.32;2.38;;;;;;;-148.88;76.34;75480.69;5015032;28;20137;-87
2022/06/29 00:36:47;;;;;;;3.60;2.40;;;;;;;-148.88;76.47;75480.69;5015225;28;20033;-86
2022/06/29 00:39:12;;;;;;;4.22;2.70;;;;;;;-148.88;76.92;75490.84;5015255;28;20164;-86
2022/06/29 00:41:39;;;;;;;6.60;2.72;;;;;;;-148.88;77.88;75494.91;4998524;28;20491;-84
2022/06/29 00:44:07;;;;;;;3.08;2.35;;;;;;;-148.88;77.63;75501.00;4998396;28;20026;-86
2022/06/29 00:46:34;;;;;;;5.15;2.53;;;;;;;-148.88;77.29;75507.09;5014810;28;20032;-86
2022/06/29 00:49:00;;;;;;;7.03;2.97;;;;;;;-148.88;77.98;75517.25;4998701;28;20428;-86
2022/06/29 00:51:29;;;;;;;5.35;2.83;;;;;;;-148.88;77.80;75519.28;4998456;28;20145;-86
2022/06/29 00:53:56;;;;;;;6.35;3.08;;;;;;;-148.88;77.66;75521.31;5015246;28;20026;-87
2022/06/29 00:56:21;;;;;;;3.63;2.83;;;;;;;-148.88;79.23;75517.25;4998558;28;20376;-86
2022/06/29 00:58:47;;;;;;;5.32;2.75;;;;;;;-148.88;79.34;75523.34;5014427;28;20476;-85
2022/06/29 01:01:14;;;;;;;4.47;2.40;;;;;;;-148.88;79.02;75523.34;5014815;28;20076;-85
2022/06/29 01:03:39;;;;;;;4.93;2.70;;;;;;;-148.88;79.19;75529.44;4998040;28;20464;-85
2022/06/29 01:06:04;;;;;;;4.95;2.45;;;;;;;-148.88;79.55;75529.44;4997853;28;20045;-86
2022/06/29 01:08:30;;;;;;;6.43;2.85;;;;;;;-148.88;79.20;75533.50;5014150;28;20480;-85
2022/06/29 01:10:55;;;;;;;5.05;2.58;;;;;;;-148.88;79.62;75535.53;4998828;28;20029;-86
2022/06/29 01:13:20;;;;;;;3.65;2.38;;;;;;;-148.88;80.29;75541.63;5014326;28;20026;-85
2022/06/29 01:15:46;;;;;;;5.03;3.40;;;;;;;-148.88;80.35;75549.75;4997734;28;20030;-85
2022/06/29 01:18:11;;;;;;;3.72;2.63;;;;;;;-148.88;80.41;75549.75;5014197;28;20045;-86
2022/06/29 01:20:36;;;;;;;4.93;3.00;;;;;;;-148.88;79.90;75563.97;5014381;28;20024;-86
2022/06/29 01:23:02;;;;;;;4.03;2.63;;;;;;;-148.88;80.13;75561.94;5014126;28;20054;-86
2022/06/29 01:25:27;;;;;;;4.45;2.75;;;;;;;-148.88;80.14;75557.88;5015228;28;20590;-85
2022/06/29 01:27:52;;;;;;;4.78;2.83;;;;;;;-148.88;80.24;75566.00;5014380;28;20025;-86
2022/06/29 01:30:18;;;;;;;4.72;3.00;;;;;;;-148.88;80.25;75570.03;4997822;28;20049;-86
2022/06/29 01:32:43;;;;;;;3.08;2.67;;;;;;;-148.88;80.62;75578.19;5014430;28;20029;-86
2022/06/29 01:35:10;;;;;;;3.83;2.83;;;;;;;-148.88;81.09;75576.13;5013867;28;20025;-86
2022/06/29 01:37:36;;;;;;;4.32;2.65;;;;;;;-148.88;81.76;75582.22;4997392;28;20480;-85
2022/06/29 01:40:06;;;;;;;3.80;2.83;;;;;;;-148.88;81.95;75586.31;4997190;28;20033;-85
2022/06/29 01:42:31;;;;;;;4.80;3.03;;;;;;;-148.88;82.32;75588.34;4997197;28;20517;-86
2022/06/29 01:44:57;;;;;;;5.35;2.88;;;;;;;-148.88;81.95;75594.44;4997316;28;20030;-86
2022/06/29 01:47:22;;;;;;;5.75;2.90;;;;;;;-148.88;82.46;75592.38;4997328;28;20492;-86
2022/06/29 01:49:47;;;;;;;7.53;3.20;;;;;;;-148.88;83.41;75588.34;5013578;28;20026;-86
2022/06/29 01:52:13;;;;;;;3.80;3.08;;;;;;;-148.88;84.65;75590.34;4997132;28;20037;-85
2022/06/29 01:54:39;;;;;;;4.18;3.13;;;;;;;-148.88;84.38;75590.34;4997174;28;20036;-84
2022/06/29 01:57:04;;;;;;;4.13;3.20;;;;;;;-148.88;84.77;75590.34;4997080;28;20546;-87
2022/06/29 01:59:29;;;;;;;5.50;3.58;;;;;;;-148.88;85.43;75586.31;4996976;28;20033;-86
2022/06/29 02:01:55;;;;;;;4.03;3.05;;;;;;;-148.88;85.27;75586.31;4997293;28;20026;-85
2022/06/29 02:04:21;;;;;;;3.88;3.47;;;;;;;-148.88;86.13;75590.34;4997010;28;20056;-86
2022/06/29 02:06:47;;;;;;;4.57;3.22;;;;;;;-148.88;86.02;75588.34;5013127;28;20033;-86
2022/06/29 02:09:12;;;;;;;7.25;3.08;;;;;;;-148.88;85.69;75584.25;4997078;28;20022;-86
2022/06/29 02:11:38;;;;;;;5.75;3.20;;;;;;;-148.88;85.78;75578.19;4997625;28;20026;-84
2022/06/29 02:14:03;;;;;;;4.43;3.35;;;;;;;-148.88;85.48;75578.19;5013145;28;20407;-86
2022/06/29 02:16:28;;;;;;;5.32;3.40;;;;;;;-148.88;86.27;75582.22;5013186;28;20021;-85
2022/06/29 02:18:54;;;;;;;5.72;3.70;;;;;;;-148.88;86.84;75574.13;5013296;28;20510;-86
2022/06/29 02:21:19;;;;;;;5.00;3.33;;;;;;;-148.88;86.83;75570.03;5013244;28;20021;-86
2022/06/29 02:23:45;;;;;;;5.03;3.58;;;;;;;-148.88;86.67;75563.97;4996659;28;20121;-87
2022/06/29 02:26:10;;;;;;;5.00;3.30;;;;;;;-148.88;86.20;75566.00;4997087;28;20032;-85
2022/06/29 02:28:36;;;;;;;4.10;3.13;;;;;;;-148.88;86.02;75559.91;4996728;28;20040;-87
2022/06/29 02:36:30;;;;;;;4.78;3.10;;;;;;;-148.88;85.64;75553.81;5014366;28;19916;-86
2022/06/29 02:38:55;;;;;;;5.63;3.33;;;;;;;-148.88;85.47;75553.81;4997260;28;20029;-87
2022/06/29 02:41:21;;;;;;;5.72;3.15;;;;;;;-148.88;85.12;75557.88;4996565;28;20022;-86
2022/06/29 02:43:46;;;;;;;4.68;3.65;;;;;;;-148.88;84.85;75566.00;5013013;28;20141;-85
2022/06/29 02:46:12;;;;;;;4.32;3.08;;;;;;;-148.88;85.16;75563.97;4996775;28;20029;-85
2022/06/29 02:48:37;;;;;;;3.47;3.03;;;;;;;-148.88;85.35;75561.94;4997209;28;20049;-89
2022/06/29 02:51:03;;;;;;;3.50;3.20;;;;;;;-148.88;85.79;75561.94;4996331;28;20113;-87
2022/06/29 02:53:28;;;;;;;6.53;3.53;;;;;;;-148.88;85.86;75561.94;4996285;28;20080;-86
2022/06/29 02:55:54;;;;;;;8.32;3.40;;;;;;;-148.88;86.25;75563.97;5012528;28;20056;-88
2022/06/29 02:58:19;;;;;;;4.55;3.70;;;;;;;-148.88;87.36;75561.94;4996074;28;20105;-89
2022/06/29 03:00:45;;;;;;;6.95;4.35;;;;;;;-148.88;87.08;75568.03;5013674;28;20044;-87
2022/06/29 03:03:10;;;;;;;6.10;3.75;;;;;;;-148.88;87.67;75563.97;5013232;28;20022;-87
2022/06/29 03:05:36;;;;;;;4.20;3.63;;;;;;;-148.88;87.57;75557.88;5012085;28;20061;-89
2022/06/29 03:11:23;;;;;;;3.90;3.45;;;;;;;-148.88;87.99;75553.81;5013784;28;20045;-88
2022/06/29 03:13:49;;;;;;;5.70;3.85;;;;;;;-148.88;89.08;75559.91;4996236;28;20026;-88
2022/06/29 03:16:14;;;;;;;6.40;4.32;;;;;;;-148.88;89.39;75566.00;4996059;28;20034;-88
2022/06/29 03:18:40;;;;;;;6.22;4.20;;;;;;;-148.88;91.22;75574.13;4995891;28;20022;-87
2022/06/29 03:21:06;;;;;;;5.72;3.95;;;;;;;-148.88;92.08;75566.00;5013315;28;20026;-87
2022/06/29 03:23:34;;;;;;;6.55;4.70;;;;;;;-148.88;92.00;75574.13;4995853;28;20025;-87
2022/06/29 03:26:00;;;;;;;6.95;4.45;;;;;;;-148.88;92.83;75570.03;5013543;28;20025;-85
2022/06/29 03:28:25;;;;;;;4.82;4.30;;;;;;;-148.88;93.13;75566.00;5012585;28;20566;-86
2022/06/29 03:30:50;;;;;;;6.85;4.07;;;;;;;-148.88;93.67;75561.94;4995789;28;20040;-85
2022/06/29 03:33:16;;;;;;;4.40;4.00;;;;;;;-148.88;93.23;75561.94;4996133;28;20065;-86
2022/06/29 03:35:41;;;;;;;6.65;4.50;;;;;;;-148.88;93.02;75557.88;5012339;28;20088;-86
2022/06/29 03:38:06;;;;;;;5.20;4.10;;;;;;;-148.88;92.83;75561.94;5013876;28;20029;-87
2022/06/29 03:40:32;;;;;;;6.07;4.32;;;;;;;-148.88;92.88;75557.88;5012715;28;20026;-86
2022/06/29 03:42:57;;;;;;;5.22;3.53;;;;;;;-148.88;92.04;75561.94;4996171;28;20033;-85
2022/06/29 03:45:23;;;;;;;4.50;3.60;;;;;;;-148.88;90.85;75557.88;4996287;28;20033;-86
2022/06/29 03:47:49;;;;;;;6.18;3.55;;;;;;;-148.88;90.81;75553.81;4996174;28;20450;-85
2022/06/29 03:50:14;;;;;;;7.22;3.75;;;;;;;-148.88;90.47;75549.75;4996393;28;20480;-87
2022/06/29 03:52:40;;;;;;;5.40;3.92;;;;;;;-148.88;90.02;75545.69;5012236;28;20022;-85
2022/06/29 03:55:06;;;;;;;5.95;3.47;;;;;;;-148.88;86.53;75541.63;4995865;28;20052;-87
2022/06/29 03:57:32;;;;;;;8.93;3.53;;;;;;;-148.88;87.11;75535.53;4996718;28;20045;-86
2022/06/29 03:59:57;;;;;;;4.97;3.15;;;;;;;-148.88;87.61;75529.44;5012350;28;20438;-84
2022/06/29 04:02:23;;;;;;;6.75;3.45;;;;;;;-148.88;87.84;75529.44;4996043;28;20076;-85
2022/06/29 04:04:48;;;;;;;5.43;3.30;;;;;;;-148.88;87.04;75533.50;5016125;28;20076;-85
2022/06/29 04:07:14;;;;;;;5.47;3.38;;;;;;;-148.88;88.73;75519.28;5017061;28;20059;-87
2022/06/29 04:09:39;;;;;;;6.05;3.08;;;;;;;-148.88;88.51;75521.31;5000220;28;20053;-85
2022/06/29 04:12:05;;;;;;;5.13;3.42;;;;;;;-148.88;88.94;75513.19;4999875;28;20025;-85
2022/06/29 04:14:30;;;;;;;5.80;3.05;;;;;;;-148.88;88.33;75513.19;4999437;28;20478;-87
2022/06/29 04:16:57;;;;;;;4.72;3.20;;;;;;;-148.88;88.75;75505.06;5015518;28;20028;-86
2022/06/29 04:19:24;;;;;;;5.03;3.28;;;;;;;-148.88;87.86;75513.19;4999558;28;20025;-85
2022/06/29 04:21:50;;;;;;;5.53;3.10;;;;;;;-148.88;86.31;75501.00;5016865;28;20079;-85
2022/06/29 04:24:16;;;;;;;5.10;3.30;;;;;;;-148.88;86.16;75486.78;5015458;28;20105;-87
2022/06/29 04:26:41;;;;;;;4.25;3.25;;;;;;;-148.88;85.42;75476.63;4998675;28;20176;-87
2022/06/29 04:29:07;;;;;;;6.05;3.22;;;;;;;-148.88;85.50;75468.50;5016670;28;20022;-86
2022/06/29 04:31:33;;;;;;;4.45;3.33;;;;;;;-148.88;85.64;75464.44;4998939;28;20396;-86
2022/06/29 04:33:59;;;;;;;4.72;2.97;;;;;;;-148.88;83.54;75454.28;4999015;28;20022;-86
2022/06/29 04:36:24;;;;;;;6.65;3.38;;;;;;;-148.88;83.58;75444.13;5015136;28;20018;-86
2022/06/29 04:38:50;;;;;;;6.75;3.22;;;;;;;-148.88;83.52;75427.88;5015500;28;20373;-85
2022/06/29 04:41:15;;;;;;;9.68;3.70;;;;;;;-148.88;84.51;75419.75;5015492;28;20036;-85
2022/06/29 04:43:41;;;;;;;8.90;3.25;;;;;;;-148.88;84.17;75407.56;5015478;28;20021;-84
2022/06/29 04:46:25;;;;;;;5.22;3.00;;;;;;;-148.88;84.06;75407.56;4998796;28;20029;-84
2022/06/29 04:48:56;;;;;;;4.20;3.08;;;;;;;-148.88;84.10;75403.50;4998461;28;20091;-86
2022/06/29 04:51:23;;;;;;;3.80;2.90;;;;;;;-148.88;83.77;75395.38;4998506;28;20060;-85
2022/06/29 04:53:49;;;;;;;4.70;2.80;;;;;;;-148.88;83.41;75389.28;5015371;28;20112;-86
2022/06/29 04:56:16;;;;;;;6.03;3.25;;;;;;;-148.88;83.21;75389.28;5014531;28;20026;-85
2022/06/29 04:58:42;;;;;;;5.10;3.17;;;;;;;-148.88;83.38;75383.19;5014856;28;20105;-84
2022/06/29 05:01:08;;;;;;;4.65;3.05;;;;;;;-148.88;83.38;75379.13;5016299;28;20041;-84
2022/06/29 05:03:34;;;;;;;4.72;3.22;;;;;;;-148.88;83.11;75375.06;4999239;28;20388;-84
2022/06/29 05:05:59;;;;;;;4.53;3.00;;;;;;;-148.88;82.58;75371.00;5015833;28;20102;-84
2022/06/29 05:08:24;;;;;;;7.25;3.63;;;;;;;-148.88;82.77;75366.94;4998359;28;20399;-84
2022/06/29 05:10:50;;;;;;;5.05;3.05;;;;;;;-148.88;82.72;75358.81;5015823;28;20022;-84
2022/06/29 05:13:15;;;;;;;5.05;3.30;;;;;;;-148.88;82.66;75354.75;5016185;28;20072;-84
2022/06/29 05:15:40;;;;;;;5.15;3.03;;;;;;;-148.88;82.64;75346.63;4997788;28;20030;-82
2022/06/29 05:18:06;;;;;;;5.45;3.28;;;;;;;-148.88;83.26;75326.31;5014529;28;20021;-83
2022/06/29 05:20:32;;;;;;;5.70;3.30;;;;;;;-148.88;82.47;75318.19;5014344;28;20030;-83
2022/06/29 05:22:57;;;;;;;5.55;2.95;;;;;;;-148.88;81.06;75303.97;5014481;28;20026;-84
2022/06/29 05:25:23;;;;;;;4.40;2.75;;;;;;;-148.88;78.76;75289.75;5000231;28;20041;-84
2022/06/29 05:27:48;;;;;;;4.18;2.92;;;;;;;-148.88;79.33;75269.47;5016292;28;20109;-84
2022/06/29 05:30:14;;;;;;;4.88;3.20;;;;;;;-148.88;80.64;75259.31;5016800;28;20028;-84
2022/06/29 05:32:39;;;;;;;5.47;2.80;;;;;;;-148.88;80.38;75245.09;5016192;28;20060;-84
2022/06/29 05:35:05;;;;;;;4.47;2.90;;;;;;;-148.88;79.08;75230.88;4998026;28;20030;-84
2022/06/29 05:37:31;;;;;;;5.10;3.08;;;;;;;-148.88;79.56;75212.59;5003387;28;20032;-84
2022/06/29 05:39:56;;;;;;;5.05;2.80;;;;;;;-148.88;77.55;75210.56;4999885;28;20029;-83
2022/06/29 05:42:22;;;;;;;7.07;3.03;;;;;;;-148.88;78.43;75194.31;5017155;28;20034;-85
2022/06/29 05:44:47;;;;;;;8.18;2.90;;;;;;;-148.88;77.18;75184.16;5015901;28;20075;-84
2022/06/29 05:47:14;;;;;;;5.95;2.80;;;;;;;-148.88;78.10;75167.91;5015700;28;20027;-84
2022/06/29 05:49:40;;;;;;;3.97;2.90;;;;;;;-148.88;77.42;75151.66;4998063;28;20026;-83
2022/06/29 05:52:05;;;;;;;4.88;2.92;;;;;;;-148.88;76.91;75143.53;4998528;28;20022;-85
2022/06/29 05:54:31;;;;;;;4.65;3.20;;;;;;;-148.88;79.02;75135.41;5015190;28;20037;-84
2022/06/29 05:56:56;;;;;;;6.60;2.55;;;;;;;-148.88;78.01;75133.38;5015241;28;20112;-85
2022/06/29 05:59:21;;;;;;;4.88;2.80;;;;;;;-148.88;77.24;75127.28;5017719;28;20053;-85
2022/06/29 06:01:47;;;;;;;6.95;3.55;;;;;;;-148.88;78.37;75117.13;4999583;28;20483;-84
2022/06/29 06:04:12;;;;;;;8.93;2.88;;;;;;;-148.88;75.67;75119.16;4998570;28;20048;-84
2022/06/29 06:06:37;;;;;;;5.50;2.65;;;;;;;-148.88;75.04;75102.91;5008149;23;20165;-83
2022/06/29 06:09:03;;;;;;;5.53;2.80;;;;;;;-148.88;76.20;75100.88;4995048;28;20389;-83
2022/06/29 06:11:28;;;;;;;6.30;2.50;;;;;;;-148.88;75.13;75102.91;4995136;28;20034;-82
2022/06/29 06:13:54;;;;;;;4.00;2.35;;;;;;;-148.88;74.44;75098.84;4995634;28;20076;-82
2022/06/29 06:16:19;;;;;;;6.70;2.75;;;;;;;-148.88;73.47;75092.78;4996132;28;20026;-82
2022/06/29 06:18:44;;;;;;;7.53;2.83;;;;;;;-148.88;74.66;75070.44;4995553;28;20534;-82
2022/06/29 06:21:10;;;;;;;7.10;2.50;;;;;;;-148.88;73.81;75060.28;4977040;28;20037;-83
2022/06/29 06:23:35;;;;;;;5.90;2.67;;;;;;;-148.88;74.35;75052.16;4993623;28;20400;-82
2022/06/29 06:26:00;;;;;;;3.63;2.50;;;;;;;-148.88;75.78;75050.13;4994098;28;20077;-82
2022/06/29 06:28:26;;;;;;;5.35;2.50;;;;;;;-148.88;75.43;75039.97;4994532;28;20034;-82
2022/06/29 06:30:51;;;;;;;4.43;2.50;;;;;;;-148.88;74.20;75029.81;4976170;28;20473;-82
2022/06/29 06:33:16;;;;;;;7.47;2.63;;;;;;;-148.88;74.80;75025.75;4994516;28;20058;-82
2022/06/29 06:35:42;;;;;;;4.25;2.50;;;;;;;-148.88;74.71;75013.56;4995202;28;20049;-83
2022/06/29 06:38:07;;;;;;;5.63;2.50;;;;;;;-148.88;76.02;75001.38;4993796;28;20101;-83
2022/06/29 06:43:16;;;;;;;4.57;2.55;;;;;;;-148.88;74.71;74960.75;4994517;28;20045;-83
2022/06/29 06:45:42;;;;;;;4.50;3.30;;;;;;;-148.88;73.80;74960.75;4994319;28;20022;-83
2022/06/29 06:48:07;;;;;;;5.43;2.58;;;;;;;-148.88;74.63;74964.81;4993662;28;20046;-82
2022/06/29 06:50:33;;;;;;;5.32;2.53;;;;;;;-148.88;76.00;74960.75;4994708;28;20022;-83
2022/06/29 06:52:58;;;;;;;4.57;2.90;;;;;;;-148.88;75.89;74952.63;4977467;28;20437;-83
2022/06/29 06:55:23;;;;;;;6.60;2.35;;;;;;;-148.88;72.17;74944.53;4995051;28;20504;-83
2022/06/29 06:57:49;;;;;;;7.82;2.55;;;;;;;-148.88;71.87;74934.38;4995418;28;20030;-83
2022/06/29 07:00:14;;;;;;;4.55;2.42;;;;;;;-148.88;71.79;74934.38;4993623;28;20513;-83
2022/06/29 07:02:40;;;;;;;6.72;2.13;;;;;;;-148.88;70.33;74938.44;4993626;28;20037;-83
2022/06/29 07:05:06;;;;;;;3.88;2.47;;;;;;;-148.88;72.80;74930.31;4992644;28;20022;-83
2022/06/29 07:07:31;;;;;;;6.32;2.20;;;;;;;-148.88;71.38;74936.41;4993894;28;20026;-82
2022/06/29 07:09:57;;;;;;;6.93;2.40;;;;;;;-148.88;72.79;74940.47;4993435;28;20536;-83
2022/06/29 07:12:22;;;;;;;5.97;2.75;;;;;;;-148.88;71.67;74952.63;4976093;28;20018;-82
2022/06/29 07:14:47;;;;;;;6.55;2.53;;;;;;;-148.88;72.75;74944.53;4994047;28;20477;-82
2022/06/29 07:17:12;;;;;;;5.55;2.35;;;;;;;-148.88;72.65;74944.53;4976509;28;20026;-82
2022/06/29 07:19:38;;;;;;;7.97;2.25;;;;;;;-148.88;73.67;74938.44;4975988;28;20019;-82
2022/06/29 07:22:03;;;;;;;4.35;2.30;;;;;;;-148.88;73.98;74932.34;4993865;28;20425;-82
2022/06/29 07:24:28;;;;;;;5.00;2.47;;;;;;;-148.88;71.93;74907.97;4993418;28;20026;-83
2022/06/29 07:26:56;;;;;;;4.55;2.20;;;;;;;-148.88;72.85;74895.78;4993951;28;20026;-82
2022/06/29 07:29:21;;;;;;;5.55;2.40;;;;;;;-148.88;71.91;74883.59;4993684;28;20418;-82
2022/06/29 07:31:47;;;;;;;6.20;2.40;;;;;;;-148.88;70.29;74883.59;4994219;28;20042;-82
2022/06/29 07:34:12;;;;;;;4.18;2.15;;;;;;;-148.88;71.55;74875.47;4994473;28;20061;-82
2022/06/29 07:36:37;;;;;;;4.43;2.30;;;;;;;-148.88;71.10;74855.16;4976529;28;20041;-82
2022/06/29 07:39:03;;;;;;;4.88;2.10;;;;;;;-148.88;72.72;74840.94;4995560;28;20080;-84
2022/06/29 07:41:28;;;;;;;6.18;2.80;;;;;;;-148.88;71.94;74810.50;4996885;28;20024;-81
2022/06/29 07:43:53;;;;;;;4.15;2.60;;;;;;;-148.88;70.96;74782.06;4996899;28;20030;-82
2022/06/29 07:46:19;;;;;;;3.45;2.30;;;;;;;-148.88;71.53;74761.75;4996681;28;20026;-82
2022/06/29 07:48:45;;;;;;;4.22;2.30;;;;;;;-148.88;70.80;74721.13;4996749;28;20472;-82
2022/06/29 07:51:10;;;;;;;3.33;1.90;;;;;;;-148.88;70.77;74713.00;4979952;28;20026;-82
2022/06/29 07:53:35;;;;;;;3.95;2.10;;;;;;;-148.88;69.43;74686.63;4996759;28;20030;-82
2022/06/29 07:56:01;;;;;;;4.00;2.63;;;;;;;-148.88;66.88;74670.38;4997029;28;20030;-82
2022/06/29 07:58:26;;;;;;;4.72;2.15;;;;;;;-148.88;70.03;74654.13;4996981;28;20457;-82
2022/06/29 08:00:53;;;;;;;4.80;2.60;;;;;;;-148.88;68.43;74650.06;4997224;28;20041;-82
2022/06/29 08:03:19;;;;;;;3.95;2.45;;;;;;;-148.88;65.11;74639.91;4996927;28;20042;-82
2022/06/29 08:05:45;;;;;;;5.43;2.70;;;;;;;-148.88;64.43;74615.53;4996449;28;20445;-82
2022/06/29 08:08:11;;;;;;;4.65;2.80;;;;;;;-148.88;61.93;74599.28;4997108;28;20053;-82
2022/06/29 08:10:36;;;;;;;4.53;3.10;;;;;;;-148.88;60.60;74591.19;4996844;28;20097;-82
2022/06/29 08:13:02;;;;;;;7.38;2.90;;;;;;;-148.88;57.69;74591.19;4996513;28;20120;-82
2022/06/29 08:15:28;;;;;;;5.40;2.92;;;;;;;-148.88;57.14;74566.81;4978781;28;20030;-82
2022/06/29 08:17:54;;;;;;;6.15;3.15;;;;;;;-148.88;57.00;74554.63;4995947;28;20049;-82
2022/06/29 08:20:20;;;;;;;6.07;2.70;;;;;;;-148.88;60.08;74542.44;4996301;28;20504;-82
2022/06/29 08:22:46;;;;;;;4.93;2.80;;;;;;;-148.88;59.08;74530.25;4994976;28;20169;-81
2022/06/29 08:25:11;;;;;;;3.70;2.72;;;;;;;-148.88;57.33;74499.81;4996055;28;20026;-81
2022/06/29 08:27:38;;;;;;;4.15;3.00;;;;;;;-148.88;57.58;74477.47;4978319;28;20026;-82
2022/06/29 08:30:04;;;;;;;5.22;3.25;;;;;;;-148.88;59.50;74436.84;4978388;28;20023;-82
2022/06/29 08:32:29;;;;;;;7.28;3.50;;;;;;;-148.88;57.84;74388.13;4995969;28;20018;-82
2022/06/29 08:35:00;;;;;;;5.95;3.38;;;;;;;-148.88;56.37;74371.88;4996491;28;20029;-82
2022/06/29 08:37:27;;;;;;;6.20;3.10;;;;;;;-148.88;55.79;74373.91;4978961;28;20054;-83
2022/06/29 08:39:52;;;;;;;4.43;3.30;;;;;;;-148.88;55.32;74398.28;4995837;28;20369;-82
2022/06/29 08:42:21;;;;;;;4.63;3.17;;;;;;;-148.88;56.78;74392.19;4996020;28;20022;-83
2022/06/29 08:44:47;;;;;;;5.28;3.40;;;;;;;-148.88;56.04;74398.28;4996103;28;20067;-83
2022/06/29 08:47:13;;;;;;;3.92;3.22;;;;;;;-148.88;56.34;74392.19;4996784;28;20022;-82
2022/06/29 08:49:39;;;;;;;4.72;3.35;;;;;;;-148.88;56.02;74388.13;4973107;28;20022;-82
2022/06/29 08:52:06;;;;;;;3.80;3.20;;;;;;;-148.88;55.92;74373.91;4959444;28;20019;-82
2022/06/29 08:54:35;;;;;;;4.63;3.28;;;;;;;-148.88;57.76;74380.00;4969725;28;20056;-82
2022/06/29 08:57:03;;;;;;;4.93;3.60;;;;;;;-148.88;56.54;74375.94;4994929;28;20038;-82
2022/06/29 08:59:29;;;;;;;5.20;3.42;;;;;;;-148.88;57.16;74373.91;4995718;28;20512;-82
2022/06/29 09:01:54;;;;;;;5.70;3.53;;;;;;;-148.88;56.64;74367.81;4995153;28;20057;-82
2022/06/29 09:04:20;;;;;;;6.38;3.40;;;;;;;-148.88;58.05;74357.66;4994496;28;20026;-83
2022/06/29 09:06:52;;;;;;;5.30;3.55;;;;;;;-148.88;57.88;74369.84;4995512;28;20106;-82
2022/06/29 09:09:18;;;;;;;4.50;3.40;;;;;;;-148.88;58.09;74357.66;4995545;28;20433;-82
2022/06/29 09:11:43;;;;;;;5.00;3.42;;;;;;;-148.88;56.78;74359.69;4995519;28;20503;-82
2022/06/29 09:14:20;;;;;;;6.07;3.40;;;;;;;-148.88;57.61;74359.69;4977753;28;20109;-83
2022/06/29 09:16:48;;;;;;;5.65;3.60;;;;;;;-148.88;57.66;74343.44;4995572;28;20508;-82
2022/06/29 09:19:14;;;;;;;4.07;3.55;;;;;;;-148.88;58.43;74321.13;4995274;28;20473;-81
2022/06/29 09:21:51;;;;;;;6.22;3.38;;;;;;;-148.88;58.06;74306.91;4977505;28;20034;-81
2022/06/29 09:24:18;;;;;;;7.32;3.65;;;;;;;-148.88;56.53;74315.03;4977251;28;20018;-82
2022/06/29 09:26:49;;;;;;;6.45;3.53;;;;;;;-148.88;58.10;74302.84;4995002;28;20018;-81
2022/06/29 09:29:25;;;;;;;4.18;3.10;;;;;;;-148.88;57.49;74294.72;4994637;28;20080;-82
2022/06/29 09:32:07;;;;;;;8.13;3.65;;;;;;;-148.88;56.89;74274.41;4977247;28;20096;-82
2022/06/29 09:34:35;;;;;;;7.30;3.85;;;;;;;-148.88;58.66;74262.22;4994727;28;20034;-82
2022/06/29 09:37:02;;;;;;;6.40;4.03;;;;;;;-148.88;58.38;74237.88;4994431;28;20061;-82
2022/06/29 09:39:38;;;;;;;4.45;3.50;;;;;;;-148.88;57.43;74262.22;4994281;28;20048;-82
2022/06/29 09:42:06;;;;;;;6.30;3.70;;;;;;;-148.88;56.25;74258.16;4994706;28;20374;-82
2022/06/29 09:44:33;;;;;;;5.35;3.75;;;;;;;-148.88;56.15;74266.28;4994207;28;20065;-82
2022/06/29 09:46:58;;;;;;;4.95;4.10;;;;;;;-148.88;56.26;74280.50;4994329;28;20481;-82
2022/06/29 09:49:28;;;;;;;5.25;3.90;;;;;;;-148.88;57.26;74298.78;4994264;28;20026;-82
2022/06/29 09:51:59;;;;;;;6.03;3.63;;;;;;;-148.88;56.79;74306.91;4994239;28;20341;-81
2022/06/29 09:54:29;;;;;;;6.07;3.75;;;;;;;-148.88;57.21;74315.03;4993962;28;20140;-82
2022/06/29 09:56:56;;;;;;;5.10;3.80;;;;;;;-148.88;58.42;74313.00;4995174;28;20030;-82
2022/06/29 10:02:34;;;;;;;6.05;4.18;;;;;;;-148.88;59.49;74323.16;4977998;28;20109;-82
2022/06/29 10:05:20;;;;;;;6.90;3.97;;;;;;;-148.88;58.37;74319.09;4994452;28;20054;-82
2022/06/29 10:07:48;;;;;;;4.43;3.80;;;;;;;-148.88;59.50;74310.97;4995170;28;20030;-82
2022/06/29 10:10:16;;;;;;;6.00;4.10;;;;;;;-148.88;59.29;74315.03;4995558;28;20022;-82
2022/06/29 10:16:00;;;;;;;5.38;3.92;;;;;;;-148.88;59.61;74315.03;4975198;28;20069;-82
2022/06/29 10:18:40;;;;;;;8.95;4.00;;;;;;;-148.88;58.30;74317.06;4974957;28;20033;-81
2022/06/29 10:21:13;;;;;;;7.10;3.88;;;;;;;-148.88;59.94;74306.91;4975421;28;20022;-82
2022/06/29 10:23:43;;;;;;;;;;;;;;;-148.88;60.33;74315.03;4985785;28;20026;-82
2022/06/29 10:26:34;;;;;;;5.90;3.80;;;;;;;-148.88;60.82;74298.78;4959641;28;19910;-81
2022/06/29 10:29:05;;;;;;;7.50;4.03;;;;;;;-148.88;62.74;74290.66;4973569;28;20031;-82
2022/06/29 10:31:49;;;;;;;7.43;4.63;;;;;;;-148.88;61.12;74284.56;4973404;28;20083;-81
2022/06/29 10:34:30;;;;;;;7.47;3.92;;;;;;;-148.88;59.23;74272.38;4975106;28;20027;-82
2022/06/29 10:37:01;;;;;;;5.32;3.97;;;;;;;-148.88;59.62;74272.38;4974695;28;20512;-82
2022/06/29 10:39:27;;;;;;;6.10;4.00;;;;;;;-148.88;59.68;74260.19;4973936;28;20026;-82
2022/06/29 10:45:06;;;;;;;7.18;4.25;;;;;;;-148.88;59.25;74262.22;4974381;28;20508;-82
2022/06/29 10:47:32;;;;;;;6.25;4.50;;;;;;;-148.88;60.82;74262.22;4961628;28;20070;-81
2022/06/29 10:50:17;;;;;;;7.03;4.18;;;;;;;-148.88;59.25;74260.19;4973241;28;20022;-82
2022/06/29 10:52:45;;;;;;;6.47;3.83;;;;;;;-148.88;62.56;74256.13;4974418;28;20068;-82
2022/06/29 10:55:11;;;;;;;5.60;4.70;;;;;;;-148.88;61.35;74254.09;4974374;28;20031;-82
2022/06/29 10:57:44;;;;;;;7.18;3.80;;;;;;;-148.88;59.98;74258.16;4974192;28;20034;-81
2022/06/29 11:00:16;;;;;;;5.22;3.53;;;;;;;-148.88;60.80;74262.22;4974411;28;20448;-81
2022/06/29 11:02:43;;;;;;;7.82;4.18;;;;;;;-148.88;61.65;74258.16;4974286;28;20034;-81
2022/06/29 11:05:08;;;;;;;5.80;4.70;;;;;;;-148.88;61.08;74264.25;4973248;28;20038;-81
2022/06/29 11:13:02;;;;;;;6.88;4.28;;;;;;;-148.88;59.81;74258.16;4976118;28;20134;-81
2022/06/29 11:15:44;;;;;;;4.85;4.32;;;;;;;-148.88;61.45;74252.06;4977993;28;20073;-82
2022/06/29 11:18:15;;;;;;;5.65;4.38;;;;;;;-148.88;59.45;74258.16;4960983;28;20077;-82
2022/06/29 11:20:43;;;;;;;6.13;4.45;;;;;;;-148.88;60.31;74258.16;4978760;28;20532;-82
2022/06/29 11:23:12;;;;;;;4.38;3.92;;;;;;;-148.88;59.98;74254.09;4978484;28;20031;-82
2022/06/29 11:25:39;;;;;;;4.95;4.45;;;;;;;-148.88;59.81;74254.09;4978176;28;20074;-82
2022/06/29 11:28:05;;;;;;;5.38;4.38;;;;;;;-148.88;61.07;74250.03;4978098;28;20501;-82
2022/06/29 11:30:30;;;;;;;5.30;4.30;;;;;;;-148.88;59.07;74241.94;4977867;28;20041;-82
2022/06/29 11:32:56;;;;;;;5.10;4.20;;;;;;;-148.88;61.65;74227.72;4960568;28;20110;-82
2022/06/29 11:35:26;;;;;;;6.50;4.20;;;;;;;-148.88;58.87;74205.38;4977630;28;20046;-83
2022/06/29 11:38:02;;;;;;;6.28;4.53;;;;;;;-148.88;60.15;74201.31;4976505;28;20031;-81
2022/06/29 11:40:34;;;;;;;8.70;4.32;;;;;;;-148.88;58.22;74195.22;4976237;28;20022;-82